Time;durP1;ratioP1;P1;durP2;ratioP2;P2;SDS_P1;SDS_P2;PMS_P1;PMS_P2;Temp;Humidity;BMP_temperature;BMP_pressure;BME280_temperature;BME280_humidity;BME280_pressure;Samples;Min_cycle;Max_cycle;Signal;HPM_P1;HPM_P2
2023/03/29 00:02:06;;;;;;;4.78;1.90;;;11.60;79.00;;;;;;10064116;28;20056;-66
2023/03/29 00:07:02;;;;;;;4.22;2.20;;;11.50;79.10;;;;;;10063630;28;20577;-65
2023/03/29 00:11:53;;;;;;;2.10;1.48;;;11.50;79.20;;;;;;10065047;28;20037;-65
2023/03/29 00:16:45;;;;;;;5.88;2.80;;;11.50;79.20;;;;;;10061495;28;20033;-67
2023/03/29 00:21:36;;;;;;;3.60;1.98;;;11.40;79.30;;;;;;10063834;28;20073;-66
2023/03/29 00:26:26;;;;;;;2.30;1.83;;;11.40;79.40;;;;;;10062838;28;20053;-66
2023/03/29 00:31:17;;;;;;;2.17;1.40;;;11.40;79.30;;;;;;10062287;28;20087;-67
2023/03/29 00:36:11;;;;;;;2.47;1.70;;;11.40;79.50;;;;;;10062895;28;20133;-66
2023/03/29 00:41:03;;;;;;;4.85;1.65;;;11.40;79.50;;;;;;10063262;28;20056;-65
2023/03/29 00:45:53;;;;;;;5.13;2.13;;;11.50;79.40;;;;;;10063139;28;20053;-66
2023/03/29 00:50:50;;;;;;;2.90;1.77;;;11.40;79.30;;;;;;10060706;28;20046;-65
2023/03/29 00:55:51;;;;;;;3.13;1.70;;;11.40;79.20;;;;;;10062084;28;20061;-65
2023/03/29 01:00:51;;;;;;;3.78;2.17;;;11.30;79.40;;;;;;10061818;28;20042;-65
2023/03/29 01:05:49;;;;;;;2.70;1.52;;;11.40;79.40;;;;;;10060430;28;20060;-65
2023/03/29 01:10:52;;;;;;;5.35;1.85;;;11.30;79.40;;;;;;10059570;28;20412;-67
2023/03/29 01:15:45;;;;;;;2.95;1.52;;;11.40;79.40;;;;;;10042593;28;20022;-68
2023/03/29 01:20:52;;;;;;;2.25;1.30;;;11.50;79.30;;;;;;10062832;28;20049;-65
2023/03/29 01:26:02;;;;;;;3.75;1.20;;;11.50;79.20;;;;;;10064141;28;20057;-66
2023/03/29 01:31:17;;;;;;;2.72;1.83;;;11.70;79.20;;;;;;10064424;28;20503;-67
2023/03/29 01:36:15;;;;;;;3.97;2.07;;;11.70;79.10;;;;;;10064545;28;20385;-67
2023/03/29 01:41:06;;;;;;;2.35;1.30;;;11.70;79.10;;;;;;10063696;28;20071;-66
2023/03/29 01:46:22;;;;;;;2.28;0.90;;;11.70;79.30;;;;;;10065637;28;20045;-67
2023/03/29 01:51:28;;;;;;;1.85;1.10;;;11.80;79.20;;;;;;10064610;28;20463;-68
2023/03/29 01:56:21;;;;;;;3.50;0.88;;;11.80;79.10;;;;;;10065369;28;20041;-68
2023/03/29 02:01:18;;;;;;;1.00;0.90;;;11.80;79.20;;;;;;10064969;28;20041;-68
2023/03/29 02:06:11;;;;;;;2.83;0.85;;;11.80;79.20;;;;;;10062305;28;20091;-68
2023/03/29 02:11:03;;;;;;;1.08;0.63;;;11.80;79.20;;;;;;10063885;28;20132;-67
2023/03/29 02:15:54;;;;;;;1.60;0.95;;;11.90;79.10;;;;;;10064632;28;20033;-66
2023/03/29 02:20:49;;;;;;;1.17;0.82;;;11.90;79.10;;;;;;10064550;28;20109;-67
2023/03/29 02:25:42;;;;;;;1.60;0.93;;;11.90;79.10;;;;;;10061768;28;20053;-68
2023/03/29 02:30:42;;;;;;;2.30;0.95;;;11.90;79.10;;;;;;10061629;28;20403;-67
2023/03/29 02:35:53;;;;;;;1.42;0.80;;;11.90;79.10;;;;;;10062088;28;20026;-68
2023/03/29 02:40:45;;;;;;;1.35;0.90;;;11.90;79.00;;;;;;10063979;28;20045;-67
2023/03/29 02:45:38;;;;;;;1.95;1.13;;;11.80;78.90;;;;;;10062634;28;20041;-69
2023/03/29 02:50:36;;;;;;;2.72;1.10;;;11.80;79.10;;;;;;10060587;28;20052;-68
2023/03/29 02:55:33;;;;;;;0.77;0.77;;;11.80;79.10;;;;;;10061393;28;20033;-69
2023/03/29 03:00:24;;;;;;;1.48;1.20;;;11.80;79.00;;;;;;10061795;28;20503;-68
2023/03/29 03:05:16;;;;;;;2.03;1.05;;;11.70;79.00;;;;;;10063274;28;20032;-68
2023/03/29 03:10:09;;;;;;;1.70;1.35;;;11.60;79.10;;;;;;10062163;28;20034;-68
2023/03/29 03:14:59;;;;;;;3.83;1.98;;;11.60;79.20;;;;;;10061351;28;20045;-68
2023/03/29 03:19:51;;;;;;;3.10;2.20;;;11.50;79.60;;;;;;10061712;28;20042;-68
2023/03/29 03:24:42;;;;;;;2.80;2.15;;;11.40;79.60;;;;;;10063079;28;20403;-69
2023/03/29 03:29:34;;;;;;;3.47;2.00;;;11.40;79.60;;;;;;10059942;28;20060;-67
2023/03/29 03:34:26;;;;;;;4.45;1.90;;;11.50;79.70;;;;;;10059318;28;20079;-68
2023/03/29 03:39:17;;;;;;;4.60;2.03;;;11.50;79.60;;;;;;10060991;28;20528;-68
2023/03/29 03:44:07;;;;;;;2.63;1.70;;;11.60;79.70;;;;;;10062300;28;20029;-66
2023/03/29 03:48:58;;;;;;;4.60;1.98;;;11.50;79.60;;;;;;10056489;28;20029;-71
2023/03/29 03:53:49;;;;;;;4.10;1.98;;;11.60;79.60;;;;;;10057725;28;20022;-66
2023/03/29 03:58:40;;;;;;;3.58;1.70;;;11.50;79.90;;;;;;10058464;28;20038;-67
2023/03/29 04:03:31;;;;;;;2.28;1.50;;;11.60;79.90;;;;;;10057369;28;20457;-67
2023/03/29 04:08:22;;;;;;;2.00;1.50;;;11.60;80.10;;;;;;10058878;28;20073;-70
2023/03/29 04:13:12;;;;;;;3.78;1.35;;;11.60;80.30;;;;;;10059906;28;20843;-72
2023/03/29 04:18:05;;;;;;;2.50;1.35;;;11.60;80.80;;;;;;10060256;28;20036;-72
2023/03/29 04:22:55;;;;;;;2.53;1.55;;;11.50;80.80;;;;;;10062567;28;20113;-70
2023/03/29 04:27:47;;;;;;;3.97;1.38;;;11.50;80.90;;;;;;10060917;28;20053;-70
2023/03/29 04:32:37;;;;;;;2.90;1.27;;;11.60;81.70;;;;;;10063585;28;20029;-71
2023/03/29 04:37:28;;;;;;;3.78;1.58;;;11.60;81.20;;;;;;10068440;28;20033;-70
2023/03/29 04:42:19;;;;;;;2.78;1.30;;;11.50;81.60;;;;;;10067554;28;20140;-69
2023/03/29 04:47:13;;;;;;;1.73;1.30;;;11.50;81.90;;;;;;10068343;28;20403;-71
2023/03/29 04:52:04;;;;;;;2.70;1.80;;;11.40;82.20;;;;;;10066755;28;20127;-70
2023/03/29 04:56:55;;;;;;;3.55;1.60;;;11.40;82.40;;;;;;10066600;28;20048;-70
2023/03/29 05:01:46;;;;;;;1.60;1.30;;;11.50;82.50;;;;;;10069135;28;20041;-67
2023/03/29 05:06:37;;;;;;;4.18;1.30;;;11.50;82.70;;;;;;10068638;28;20347;-70
2023/03/29 05:11:28;;;;;;;3.03;1.27;;;11.50;82.90;;;;;;10069736;28;20058;-69
2023/03/29 05:16:19;;;;;;;4.47;1.83;;;11.60;82.90;;;;;;10068035;28;20104;-68
2023/03/29 05:21:10;;;;;;;4.25;2.10;;;11.60;83.00;;;;;;10066120;28;20041;-67
2023/03/29 05:26:01;;;;;;;3.40;1.70;;;11.60;83.20;;;;;;10064871;28;21244;-66
2023/03/29 05:30:59;;;;;;;3.22;1.40;;;11.50;83.30;;;;;;10064982;28;20037;-66
2023/03/29 05:36:01;;;;;;;2.78;1.60;;;11.60;83.40;;;;;;10063828;28;20041;-67
2023/03/29 05:40:51;;;;;;;4.18;1.50;;;11.50;83.40;;;;;;10063183;28;20329;-68
2023/03/29 05:45:42;;;;;;;2.85;1.40;;;11.60;83.30;;;;;;10063940;28;20327;-67
2023/03/29 05:50:33;;;;;;;2.42;1.58;;;11.70;83.30;;;;;;10065246;28;20037;-69
2023/03/29 05:55:24;;;;;;;6.35;1.80;;;11.60;83.30;;;;;;10064173;28;20037;-70
2023/03/29 06:00:21;;;;;;;1.70;1.60;;;11.70;83.30;;;;;;10064653;28;20025;-69
2023/03/29 06:05:12;;;;;;;3.17;2.25;;;11.70;83.50;;;;;;10066959;28;20040;-69
2023/03/29 06:10:04;;;;;;;2.42;1.98;;;11.80;83.30;;;;;;10062960;28;20468;-69
2023/03/29 06:14:57;;;;;;;4.25;1.52;;;11.80;83.40;;;;;;10070954;28;20329;-69
2023/03/29 06:19:47;;;;;;;6.85;1.65;;;11.90;83.50;;;;;;10061246;28;20029;-67
2023/03/29 06:24:38;;;;;;;2.08;1.50;;;12.00;83.50;;;;;;10066901;28;20492;-69
2023/03/29 06:29:29;;;;;;;3.17;1.42;;;11.90;83.70;;;;;;10061382;28;20516;-70
2023/03/29 06:34:20;;;;;;;1.73;1.30;;;11.90;83.80;;;;;;10062444;28;20053;-69
2023/03/29 06:39:11;;;;;;;3.17;1.55;;;11.90;83.70;;;;;;10061149;28;20099;-68
2023/03/29 06:44:02;;;;;;;4.47;1.48;;;12.00;83.80;;;;;;10059218;28;20076;-70
2023/03/29 06:48:53;;;;;;;3.35;1.83;;;12.20;83.90;;;;;;10059267;28;20040;-69
2023/03/29 06:53:44;;;;;;;3.42;1.55;;;12.20;83.80;;;;;;10059515;28;20037;-68
2023/03/29 06:58:38;;;;;;;7.20;2.40;;;12.30;84.00;;;;;;10059589;28;20045;-68
2023/03/29 07:03:29;;;;;;;4.88;2.10;;;12.40;84.10;;;;;;10064321;28;20116;-68
2023/03/29 07:08:21;;;;;;;2.85;1.85;;;12.60;83.90;;;;;;10079805;28;20491;-67
2023/03/29 07:13:12;;;;;;;2.00;1.38;;;12.60;83.90;;;;;;10067422;28;20496;-70
2023/03/29 07:18:03;;;;;;;4.05;2.35;;;12.70;84.00;;;;;;10060301;28;20570;-70
2023/03/29 07:22:54;;;;;;;4.78;2.22;;;12.80;83.90;;;;;;10061503;28;20041;-69
2023/03/29 07:27:45;;;;;;;5.20;2.47;;;12.80;84.10;;;;;;10071662;28;20045;-69
2023/03/29 07:32:37;;;;;;;2.88;1.80;;;12.90;84.30;;;;;;10056522;28;20091;-68
2023/03/29 07:37:28;;;;;;;3.03;1.70;;;13.00;84.20;;;;;;10058142;28;20044;-71
2023/03/29 07:42:19;;;;;;;3.38;1.83;;;12.90;84.30;;;;;;10048613;28;20377;-73
2023/03/29 07:47:10;;;;;;;5.30;2.35;;;12.90;84.40;;;;;;10044198;28;20024;-71
2023/03/29 07:52:00;;;;;;;10.30;3.40;;;13.10;84.20;;;;;;10045481;28;20030;-69
2023/03/29 07:56:51;;;;;;;4.80;1.85;;;13.30;84.00;;;;;;10050957;28;20113;-72
2023/03/29 08:01:42;;;;;;;6.75;2.20;;;13.40;83.90;;;;;;10045195;28;20113;-74
2023/03/29 08:06:32;;;;;;;5.07;2.58;;;13.60;83.70;;;;;;10047010;28;20435;-76
2023/03/29 08:11:23;;;;;;;4.30;1.90;;;13.80;83.70;;;;;;10055567;28;20042;-75
2023/03/29 08:16:23;;;;;;;2.50;1.92;;;13.80;83.50;;;;;;10060015;28;20053;-78
2023/03/29 08:21:14;;;;;;;3.55;1.90;;;14.00;83.50;;;;;;10055607;28;20089;-74
2023/03/29 08:26:07;;;;;;;2.88;2.05;;;14.10;83.40;;;;;;10059029;28;20061;-79
2023/03/29 08:30:58;;;;;;;2.40;1.67;;;14.20;83.30;;;;;;10055458;28;20103;-65
2023/03/29 08:35:49;;;;;;;3.38;1.58;;;14.30;83.20;;;;;;10055399;28;20671;-68
2023/03/29 08:40:40;;;;;;;3.85;2.08;;;14.30;83.10;;;;;;10057585;28;20564;-68
2023/03/29 08:45:37;;;;;;;4.90;2.65;;;14.40;83.00;;;;;;10063534;28;20396;-71
2023/03/29 08:50:42;;;;;;;4.15;1.52;;;14.60;83.00;;;;;;10056175;28;20035;-73
2023/03/29 08:55:42;;;;;;;2.35;1.88;;;14.70;82.60;;;;;;10059940;28;20095;-73
2023/03/29 09:00:54;;;;;;;3.42;2.10;;;14.60;82.90;;;;;;10058318;28;20046;-68
2023/03/29 09:05:47;;;;;;;2.85;1.70;;;14.70;82.70;;;;;;10057027;28;20025;-67
2023/03/29 09:10:47;;;;;;;3.97;2.05;;;14.90;82.80;;;;;;10051937;28;20026;-68
2023/03/29 09:15:56;;;;;;;2.53;1.55;;;14.90;83.20;;;;;;10060102;28;20184;-69
2023/03/29 09:20:59;;;;;;;3.60;1.67;;;15.00;82.60;;;;;;10055015;28;20124;-67
2023/03/29 09:26:10;;;;;;;3.58;1.65;;;15.00;82.10;;;;;;10054181;28;20041;-67
2023/03/29 09:31:12;;;;;;;4.47;1.75;;;15.00;82.40;;;;;;10062978;28;20043;-64
2023/03/29 09:36:27;;;;;;;3.53;1.67;;;15.10;82.30;;;;;;10064732;28;20040;-65
2023/03/29 09:41:46;;;;;;;3.20;1.48;;;15.20;82.20;;;;;;10064888;28;20041;-71
2023/03/29 09:46:43;;;;;;;3.78;1.60;;;15.40;82.00;;;;;;10063112;28;20031;-69
2023/03/29 09:51:34;;;;;;;1.75;1.33;;;15.50;81.80;;;;;;10066805;28;20449;-68
2023/03/29 09:56:26;;;;;;;2.65;1.88;;;15.70;81.80;;;;;;10065537;28;20037;-67
2023/03/29 10:01:17;;;;;;;3.17;1.40;;;15.80;81.70;;;;;;10063713;28;20053;-68
2023/03/29 10:06:10;;;;;;;3.50;1.73;;;15.90;81.50;;;;;;10062903;28;20498;-67
2023/03/29 10:11:08;;;;;;;2.13;1.10;;;16.10;81.50;;;;;;10052399;28;20176;-67
2023/03/29 10:16:03;;;;;;;5.22;1.80;;;16.30;81.10;;;;;;10049631;28;20412;-66
2023/03/29 10:20:58;;;;;;;3.33;1.27;;;16.70;80.90;;;;;;10044103;28;20480;-67
2023/03/29 10:25:49;;;;;;;1.90;1.15;;;16.70;80.70;;;;;;10053989;28;20034;-68
2023/03/29 10:30:40;;;;;;;3.45;2.33;;;16.30;80.70;;;;;;10050157;28;20025;-67
2023/03/29 10:35:40;;;;;;;2.40;1.67;;;16.20;80.70;;;;;;10047470;28;20029;-66
2023/03/29 10:40:40;;;;;;;1.08;0.95;;;16.40;80.20;;;;;;10058900;28;20041;-68
2023/03/29 10:45:34;;;;;;;2.10;1.38;;;16.80;79.80;;;;;;10064569;28;20096;-70
2023/03/29 10:50:33;;;;;;;1.33;0.90;;;16.90;79.30;;;;;;10062649;28;20079;-67
2023/03/29 10:55:33;;;;;;;2.60;1.27;;;17.10;78.90;;;;;;10069650;28;20037;-71
2023/03/29 11:00:40;;;;;;;3.75;1.42;;;17.10;78.90;;;;;;10072855;28;20037;-74
2023/03/29 11:06:16;;;;;;;2.78;1.25;;;16.90;78.80;;;;;;10059819;28;20389;-67
2023/03/29 11:11:07;;;;;;;2.35;1.48;;;16.80;78.40;;;;;;10056349;28;20045;-68
2023/03/29 11:16:19;;;;;;;1.50;1.20;;;16.80;78.40;;;;;;10065760;28;20126;-67
2023/03/29 11:21:28;;;;;;;5.18;1.63;;;16.90;78.00;;;;;;10053654;28;20082;-69
2023/03/29 11:26:35;;;;;;;3.67;2.08;;;17.20;77.70;;;;;;10067104;28;20048;-72
2023/03/29 11:31:29;;;;;;;1.85;1.55;;;17.40;77.50;;;;;;10058088;28;20475;-70
2023/03/29 11:36:41;;;;;;;2.80;1.17;;;17.70;77.30;;;;;;10063049;28;20116;-69
2023/03/29 11:41:37;;;;;;;2.50;1.23;;;17.90;77.10;;;;;;10062106;28;20041;-70
2023/03/29 11:46:36;;;;;;;2.33;1.00;;;17.80;77.10;;;;;;10068040;28;20022;-70
2023/03/29 11:51:35;;;;;;;1.95;0.93;;;17.60;77.40;;;;;;10067421;28;20432;-67
2023/03/29 11:56:48;;;;;;;3.10;1.20;;;17.50;76.50;;;;;;10066190;28;20017;-68
2023/03/29 12:01:45;;;;;;;3.65;1.02;;;17.30;76.40;;;;;;10060243;28;20389;-68
2023/03/29 12:06:53;;;;;;;1.83;1.10;;;17.40;75.80;;;;;;10066105;28;20030;-66
2023/03/29 12:12:08;;;;;;;2.10;0.90;;;18.00;75.20;;;;;;10059814;28;20167;-66
2023/03/29 12:17:01;;;;;;;;;;;18.30;74.50;;;;;;10061799;28;20539;-66
2023/03/29 12:21:54;;;;;;;3.35;1.40;;;18.50;74.60;;;;;;10066876;28;19917;-66
2023/03/29 12:27:19;;;;;;;2.28;1.58;;;18.60;74.90;;;;;;10071443;28;20052;-67
2023/03/29 12:32:31;;;;;;;1.40;0.90;;;18.50;74.70;;;;;;10058998;28;20342;-67
2023/03/29 12:37:52;;;;;;;1.80;1.17;;;18.40;74.40;;;;;;10053607;28;20111;-69
2023/03/29 12:42:50;;;;;;;1.92;1.42;;;18.40;74.40;;;;;;10063851;28;20044;-68
2023/03/29 12:47:44;;;;;;;2.53;1.35;;;18.60;74.00;;;;;;10063093;28;20037;-69
2023/03/29 12:52:35;;;;;;;2.83;1.80;;;18.90;73.60;;;;;;10063301;28;20044;-68
2023/03/29 12:57:38;;;;;;;3.58;1.20;;;19.30;73.40;;;;;;10063802;28;20026;-68
2023/03/29 13:02:35;;;;;;;3.15;1.27;;;19.60;73.30;;;;;;10061690;28;20064;-68
2023/03/29 13:07:31;;;;;;;1.90;1.20;;;19.90;73.00;;;;;;10058754;28;20042;-70
2023/03/29 13:12:49;;;;;;;6.13;1.48;;;19.90;73.00;;;;;;10053963;28;20025;-74
2023/03/29 13:18:11;;;;;;;1.70;1.02;;;19.60;72.80;;;;;;10048967;28;20038;-70
2023/03/29 13:23:23;;;;;;;2.63;1.40;;;19.40;72.80;;;;;;10045153;28;20056;-68
2023/03/29 13:28:51;;;;;;;1.30;1.00;;;20.00;72.20;;;;;;10056569;28;20057;-67
2023/03/29 13:34:20;;;;;;;3.53;1.95;;;20.50;71.80;;;;;;10048422;28;20029;-67
2023/03/29 13:39:19;;;;;;;1.92;1.20;;;20.50;71.80;;;;;;10070192;28;20053;-66
2023/03/29 13:44:25;;;;;;;1.08;0.73;;;20.60;71.70;;;;;;10059696;28;20037;-71
2023/03/29 13:49:19;;;;;;;2.47;1.35;;;21.00;71.00;;;;;;10049942;28;20072;-67
2023/03/29 13:54:30;;;;;;;0.98;0.80;;;23.60;70.50;;;;;;10048070;28;20026;-69
2023/03/29 13:59:32;;;;;;;2.15;1.02;;;24.10;69.30;;;;;;10048027;28;20484;-72
2023/03/29 14:04:26;;;;;;;3.05;1.00;;;23.20;69.40;;;;;;10049847;28;20065;-70
2023/03/29 14:09:18;;;;;;;;;;;22.70;69.60;;;;;;10050044;28;20559;-70
2023/03/29 14:14:10;;;;;;;3.78;1.17;;;23.30;68.10;;;;;;10051427;28;20288;-70
2023/03/29 14:19:10;;;;;;;1.42;1.05;;;23.70;68.90;;;;;;10062073;28;20044;-68
2023/03/29 14:24:02;;;;;;;3.75;1.40;;;23.80;68.10;;;;;;10067492;28;20025;-71
2023/03/29 14:28:55;;;;;;;1.77;0.90;;;23.70;67.70;;;;;;10061889;28;20415;-72
2023/03/29 14:33:55;;;;;;;2.10;1.00;;;23.80;67.10;;;;;;10047268;28;20040;-69
2023/03/29 14:38:51;;;;;;;1.77;1.05;;;23.70;66.20;;;;;;10046471;28;20073;-69
2023/03/29 14:43:42;;;;;;;3.53;1.20;;;23.80;66.40;;;;;;10055944;28;20539;-73
2023/03/29 14:48:34;;;;;;;2.10;0.93;;;23.60;65.30;;;;;;10064942;28;20034;-73
2023/03/29 14:53:27;;;;;;;2.20;1.30;;;23.10;65.20;;;;;;10061598;28;20092;-67
2023/03/29 14:58:35;;;;;;;4.20;0.90;;;22.70;65.20;;;;;;10046447;28;20391;-75
2023/03/29 15:03:26;;;;;;;1.00;0.68;;;22.00;65.10;;;;;;10047176;28;20065;-71
2023/03/29 15:08:36;;;;;;;2.13;1.13;;;21.40;65.70;;;;;;10057974;28;20033;-69
2023/03/29 15:13:28;;;;;;;5.20;0.90;;;21.10;65.60;;;;;;10064655;28;20041;-66
2023/03/29 15:18:25;;;;;;;8.45;1.35;;;21.20;65.60;;;;;;10055977;28;20032;-68
2023/03/29 15:23:16;;;;;;;4.15;1.23;;;21.40;65.40;;;;;;10042462;28;20174;-68
2023/03/29 15:28:31;;;;;;;4.78;1.42;;;21.50;65.40;;;;;;10047156;28;20209;-66
2023/03/29 15:33:24;;;;;;;4.25;1.80;;;21.20;65.50;;;;;;10044545;28;20034;-66
2023/03/29 15:38:14;;;;;;;4.43;1.35;;;20.90;65.90;;;;;;10046154;28;20021;-64
2023/03/29 15:43:05;;;;;;;2.72;1.35;;;20.90;66.10;;;;;;10039938;28;20045;-66
2023/03/29 15:47:56;;;;;;;1.65;0.80;;;20.80;66.20;;;;;;10042790;28;20018;-67
2023/03/29 15:52:46;;;;;;;4.65;1.13;;;20.70;66.50;;;;;;10044255;28;20026;-66
2023/03/29 15:57:37;;;;;;;6.93;1.60;;;20.50;66.60;;;;;;10047267;28;20025;-65
2023/03/29 16:02:28;;;;;;;3.13;1.50;;;20.30;66.90;;;;;;10040534;28;20041;-67
2023/03/29 16:07:19;;;;;;;2.85;1.02;;;20.20;67.20;;;;;;10041954;28;20026;-65
2023/03/29 16:12:10;;;;;;;3.30;1.42;;;20.00;67.20;;;;;;10046704;28;20040;-66
2023/03/29 16:17:04;;;;;;;2.38;1.00;;;19.90;67.20;;;;;;10041773;28;20113;-67
2023/03/29 16:21:56;;;;;;;4.97;1.03;;;19.90;67.00;;;;;;10040265;28;20034;-66
2023/03/29 16:26:47;;;;;;;3.88;1.27;;;20.10;66.80;;;;;;10048680;28;20037;-67
2023/03/29 16:31:38;;;;;;;1.70;1.40;;;20.50;66.30;;;;;;10052148;28;20029;-66
2023/03/29 16:36:29;;;;;;;2.05;1.10;;;20.80;66.00;;;;;;10050454;28;20030;-67
2023/03/29 16:41:21;;;;;;;1.48;1.20;;;20.60;66.20;;;;;;10050451;28;20121;-66
2023/03/29 16:46:11;;;;;;;3.30;1.40;;;20.30;66.30;;;;;;10049087;28;20029;-67
2023/03/29 16:51:03;;;;;;;3.25;1.10;;;20.20;66.40;;;;;;10058175;28;20044;-67
2023/03/29 16:55:53;;;;;;;4.40;0.95;;;19.90;66.50;;;;;;10064151;28;20029;-66
2023/03/29 17:00:44;;;;;;;7.15;1.80;;;19.80;66.60;;;;;;10063611;28;20160;-67
2023/03/29 17:05:40;;;;;;;2.50;1.38;;;19.60;66.70;;;;;;10064570;28;20026;-68
2023/03/29 17:10:31;;;;;;;2.85;1.33;;;19.50;66.80;;;;;;10065454;28;20229;-67
2023/03/29 17:15:21;;;;;;;2.33;1.38;;;19.40;66.90;;;;;;10086163;28;20271;-67
2023/03/29 17:20:12;;;;;;;2.85;1.40;;;19.30;67.00;;;;;;10061742;28;20037;-67
2023/03/29 17:25:06;;;;;;;3.75;1.38;;;19.30;67.20;;;;;;10069192;28;20026;-67
2023/03/29 17:29:56;;;;;;;4.05;1.20;;;19.20;67.20;;;;;;10058981;28;20088;-67
2023/03/29 17:34:51;;;;;;;12.82;4.03;;;19.20;67.20;;;;;;10049157;28;20366;-66
2023/03/29 17:39:42;;;;;;;10.30;2.20;;;19.10;67.20;;;;;;10046598;28;20048;-67
2023/03/29 17:44:33;;;;;;;3.72;1.67;;;19.00;67.30;;;;;;10047150;28;20048;-66
2023/03/29 17:49:23;;;;;;;5.35;1.98;;;18.90;67.30;;;;;;10057102;28;20032;-66
2023/03/29 17:54:15;;;;;;;4.70;1.83;;;18.90;67.40;;;;;;10054627;28;20037;-71
2023/03/29 17:59:06;;;;;;;5.68;1.90;;;18.80;67.40;;;;;;10073451;28;20044;-69
2023/03/29 18:03:56;;;;;;;7.20;1.77;;;18.70;67.50;;;;;;10063862;28;20020;-74
2023/03/29 18:08:47;;;;;;;3.83;1.60;;;18.60;67.70;;;;;;10059720;28;20387;-71
2023/03/29 18:13:39;;;;;;;3.08;1.80;;;18.60;67.80;;;;;;10062639;28;20056;-71
2023/03/29 18:18:29;;;;;;;4.00;2.60;;;18.50;68.00;;;;;;10069010;28;20385;-69
2023/03/29 18:23:20;;;;;;;2.50;1.73;;;18.50;68.10;;;;;;10065559;28;20061;-73
2023/03/29 18:28:11;;;;;;;9.20;3.28;;;18.50;68.20;;;;;;10064430;28;20048;-74
2023/03/29 18:33:02;;;;;;;4.53;2.08;;;18.40;68.40;;;;;;10054281;28;20090;-70
2023/03/29 18:37:52;;;;;;;3.65;1.60;;;18.40;68.60;;;;;;10059990;28;20037;-71
2023/03/29 18:42:43;;;;;;;5.18;2.22;;;18.40;68.70;;;;;;10068948;28;20531;-74
2023/03/29 18:47:33;;;;;;;3.95;2.20;;;18.40;68.90;;;;;;10057398;28;20026;-71
2023/03/29 18:52:24;;;;;;;2.00;1.48;;;18.20;69.10;;;;;;10060406;28;20065;-72
2023/03/29 18:57:15;;;;;;;3.80;2.15;;;18.20;69.30;;;;;;10073193;28;20025;-72
2023/03/29 19:02:06;;;;;;;3.90;1.48;;;18.20;69.60;;;;;;10056960;28;20372;-73
2023/03/29 19:06:58;;;;;;;4.18;1.58;;;18.20;69.70;;;;;;10063236;28;20029;-73
2023/03/29 19:11:49;;;;;;;6.50;1.52;;;18.10;69.80;;;;;;10062987;28;20030;-73
2023/03/29 19:16:39;;;;;;;6.65;2.33;;;18.10;70.00;;;;;;10061044;28;20487;-74
2023/03/29 19:21:31;;;;;;;4.43;1.83;;;18.10;70.20;;;;;;10065471;28;20038;-70
2023/03/29 19:26:22;;;;;;;7.03;2.30;;;18.10;70.40;;;;;;10058050;28;20080;-74
2023/03/29 19:31:12;;;;;;;6.10;1.88;;;18.00;70.50;;;;;;10049373;28;20040;-71
2023/03/29 19:36:03;;;;;;;5.03;1.85;;;18.00;70.60;;;;;;10059332;28;20032;-73
2023/03/29 19:40:55;;;;;;;7.18;1.80;;;18.00;70.80;;;;;;10053869;28;20048;-74
2023/03/29 19:45:48;;;;;;;5.85;1.60;;;17.90;71.00;;;;;;10059495;28;20029;-72
2023/03/29 19:50:40;;;;;;;3.55;1.92;;;17.90;71.10;;;;;;10060083;28;20168;-72
2023/03/29 19:55:31;;;;;;;7.70;2.28;;;18.00;71.30;;;;;;10057758;28;20123;-68
2023/03/29 20:00:23;;;;;;;3.88;1.42;;;17.90;71.30;;;;;;10059015;28;20127;-71
2023/03/29 20:05:15;;;;;;;7.88;2.25;;;17.90;71.50;;;;;;10065236;28;20026;-71
2023/03/29 20:10:06;;;;;;;2.92;1.80;;;17.90;71.70;;;;;;10070705;28;20125;-71
2023/03/29 20:14:56;;;;;;;9.77;1.73;;;18.00;71.90;;;;;;10063636;28;20108;-74
2023/03/29 20:19:47;;;;;;;2.60;1.30;;;18.00;72.10;;;;;;10060415;28;20038;-71
2023/03/29 20:24:38;;;;;;;5.15;2.40;;;18.00;72.00;;;;;;10067093;28;20112;-70
2023/03/29 20:29:29;;;;;;;5.45;2.10;;;18.00;72.00;;;;;;10066777;28;20037;-72
2023/03/29 20:34:21;;;;;;;4.38;1.85;;;18.00;72.10;;;;;;10065878;28;20124;-73
2023/03/29 20:39:12;;;;;;;4.03;1.40;;;18.00;72.10;;;;;;10066382;28;20064;-71
2023/03/29 20:44:04;;;;;;;3.35;1.77;;;18.00;72.10;;;;;;10065995;28;20034;-72
2023/03/29 20:48:55;;;;;;;5.03;2.42;;;18.00;72.10;;;;;;10064608;28;20044;-74
2023/03/29 20:53:46;;;;;;;2.40;1.38;;;17.90;72.10;;;;;;10065657;28;20493;-73
2023/03/29 20:58:40;;;;;;;6.75;1.52;;;17.90;72.10;;;;;;10066080;28;20567;-74
2023/03/29 21:03:31;;;;;;;4.10;1.30;;;17.90;72.20;;;;;;10064593;28;20037;-72
2023/03/29 21:08:22;;;;;;;4.57;1.50;;;17.90;72.40;;;;;;10068460;28;20017;-74
2023/03/29 21:13:12;;;;;;;4.07;1.42;;;17.90;72.50;;;;;;10068272;28;20033;-70
2023/03/29 21:18:03;;;;;;;2.03;1.25;;;17.90;72.50;;;;;;10064561;28;20191;-73
2023/03/29 21:22:54;;;;;;;7.20;2.13;;;17.90;72.70;;;;;;10063857;28;20037;-74
2023/03/29 21:27:44;;;;;;;9.65;1.90;;;17.90;72.80;;;;;;10062123;28;20072;-72
2023/03/29 21:32:35;;;;;;;2.85;1.50;;;17.90;72.90;;;;;;10063370;28;20148;-73
2023/03/29 21:37:26;;;;;;;3.42;1.38;;;18.00;73.10;;;;;;10063531;28;20030;-71
2023/03/29 21:42:17;;;;;;;3.15;1.20;;;17.90;73.10;;;;;;10065681;28;20037;-73
2023/03/29 21:47:07;;;;;;;11.43;2.15;;;17.90;73.40;;;;;;10067348;28;20503;-73
2023/03/29 21:51:58;;;;;;;3.33;1.45;;;17.90;73.50;;;;;;10064263;28;20036;-70
2023/03/29 21:56:49;;;;;;;4.03;1.40;;;17.80;73.60;;;;;;10063461;28;20029;-69
2023/03/29 22:01:40;;;;;;;4.22;1.30;;;17.90;73.80;;;;;;10064168;28;20514;-72
2023/03/29 22:06:30;;;;;;;4.32;1.55;;;17.80;74.10;;;;;;10069676;28;20029;-70
2023/03/29 22:11:22;;;;;;;3.65;1.85;;;17.80;74.30;;;;;;10077007;28;20025;-70
2023/03/29 22:16:15;;;;;;;6.07;1.92;;;17.80;74.40;;;;;;10064567;28;20083;-72
2023/03/29 22:21:05;;;;;;;6.80;1.48;;;17.80;74.60;;;;;;10064504;28;20061;-73
2023/03/29 22:25:56;;;;;;;3.75;1.73;;;17.70;74.70;;;;;;10059910;28;20072;-70
2023/03/29 22:30:47;;;;;;;4.75;1.80;;;17.70;74.90;;;;;;10061714;28;20492;-72
2023/03/29 22:35:37;;;;;;;6.03;2.17;;;17.70;75.00;;;;;;10061556;28;20033;-69
2023/03/29 22:40:31;;;;;;;3.15;1.33;;;17.70;75.50;;;;;;10061152;28;20045;-72
2023/03/29 22:45:22;;;;;;;4.10;1.95;;;17.70;75.50;;;;;;10061733;28;20118;-71
2023/03/29 22:50:13;;;;;;;6.22;1.70;;;17.60;75.80;;;;;;10062149;28;20524;-73
2023/03/29 22:55:04;;;;;;;3.33;1.67;;;17.60;76.00;;;;;;10060522;28;20021;-72
2023/03/29 22:59:54;;;;;;;3.08;1.83;;;17.60;76.30;;;;;;10063299;28;20137;-70
2023/03/29 23:04:46;;;;;;;3.83;1.45;;;17.50;76.50;;;;;;10052302;28;20104;-71
2023/03/29 23:09:37;;;;;;;5.75;1.80;;;17.50;76.70;;;;;;10074511;28;20037;-73
2023/03/29 23:14:27;;;;;;;7.63;1.77;;;17.50;77.00;;;;;;10068600;28;21371;-73
2023/03/29 23:19:18;;;;;;;8.13;2.22;;;17.50;77.20;;;;;;10069167;28;20037;-74
2023/03/29 23:24:08;;;;;;;4.38;2.38;;;17.50;77.40;;;;;;10063989;28;20108;-72
2023/03/29 23:28:59;;;;;;;4.88;1.75;;;17.50;77.50;;;;;;10064153;28;20060;-72
2023/03/29 23:33:51;;;;;;;6.43;1.73;;;17.50;77.90;;;;;;10066039;28;20078;-73
2023/03/29 23:38:44;;;;;;;4.88;1.70;;;17.50;78.20;;;;;;10065101;28;20033;-69
2023/03/29 23:43:39;;;;;;;3.08;2.35;;;17.40;78.30;;;;;;10064177;28;20041;-72
2023/03/29 23:48:30;;;;;;;7.10;2.30;;;17.40;78.70;;;;;;10068181;28;20456;-74
2023/03/29 23:53:23;;;;;;;4.80;1.60;;;17.40;78.80;;;;;;10061904;28;20033;-72
2023/03/29 23:58:15;;;;;;;6.82;2.20;;;17.50;78.90;;;;;;10032514;28;20033;-74
